Time;durP1;ratioP1;P1;durP2;ratioP2;P2;SDS_P1;SDS_P2;PMS_P1;PMS_P2;Temp;Humidity;BMP_temperature;BMP_pressure;BME280_temperature;BME280_humidity;BME280_pressure;Samples;Min_cycle;Max_cycle;Signal;HPM_P1;HPM_P2
2022/12/13 00:02:03;;;;;;;44.63;20.90;;;;;;;;;;4999130;28;20707;-62
2022/12/13 00:04:29;;;;;;;40.53;20.00;;;;;;;;;;5000002;28;20282;-62
2022/12/13 00:06:55;;;;;;;54.23;24.33;;;;;;;;;;4994511;28;20435;-61
2022/12/13 00:09:22;;;;;;;52.13;22.50;;;;;;;;;;4994938;28;20121;-62
2022/12/13 00:11:48;;;;;;;48.70;21.40;;;;;;;;;;4994775;28;20314;-62
2022/12/13 00:14:15;;;;;;;50.33;23.50;;;;;;;;;;4995196;28;20292;-62
2022/12/13 00:16:44;;;;;;;53.30;22.60;;;;;;;;;;4997883;28;20950;-62
2022/12/13 00:19:10;;;;;;;46.03;21.83;;;;;;;;;;4999978;28;20301;-62
2022/12/13 00:21:36;;;;;;;46.17;18.90;;;;;;;;;;5002036;28;20314;-62
2022/12/13 00:24:02;;;;;;;43.37;19.37;;;;;;;;;;5000104;28;20792;-62
2022/12/13 00:26:30;;;;;;;51.47;22.97;;;;;;;;;;5001159;28;20046;-62
2022/12/13 00:28:59;;;;;;;47.27;22.53;;;;;;;;;;5001025;28;20421;-62
2022/12/13 00:31:25;;;;;;;48.53;22.13;;;;;;;;;;5002026;28;20784;-62
2022/12/13 00:33:52;;;;;;;45.03;21.33;;;;;;;;;;4998190;28;20424;-62
2022/12/13 00:36:18;;;;;;;41.03;19.93;;;;;;;;;;4998777;28;20301;-62
2022/12/13 00:38:44;;;;;;;42.47;20.97;;;;;;;;;;4999764;28;20367;-62
2022/12/13 00:41:11;;;;;;;44.07;19.43;;;;;;;;;;5002839;28;20292;-62
2022/12/13 00:43:37;;;;;;;43.10;20.63;;;;;;;;;;4999144;28;20289;-62
2022/12/13 00:46:03;;;;;;;51.00;21.50;;;;;;;;;;5003718;28;20638;-62
2022/12/13 00:48:29;;;;;;;39.80;19.27;;;;;;;;;;5001324;28;20431;-62
2022/12/13 00:50:55;;;;;;;47.47;21.77;;;;;;;;;;4996944;28;20373;-62
2022/12/13 00:53:21;;;;;;;43.33;20.17;;;;;;;;;;5000750;28;20083;-62
2022/12/13 00:55:47;;;;;;;48.97;22.43;;;;;;;;;;5001789;28;20277;-62
2022/12/13 00:58:13;;;;;;;48.63;20.87;;;;;;;;;;4998376;28;20293;-62
2022/12/13 01:00:39;;;;;;;45.87;20.27;;;;;;;;;;4999067;28;20049;-62
2022/12/13 01:03:19;;;;;;;47.07;21.93;;;;;;;;;;4999020;28;20046;-62
2022/12/13 01:05:46;;;;;;;50.23;20.50;;;;;;;;;;4997187;28;20795;-62
2022/12/13 01:08:13;;;;;;;51.27;22.10;;;;;;;;;;4998995;28;20284;-62
2022/12/13 01:10:42;;;;;;;59.23;22.77;;;;;;;;;;4997010;28;20313;-62
2022/12/13 01:13:08;;;;;;;50.80;22.83;;;;;;;;;;4996545;28;20393;-62
2022/12/13 01:15:34;;;;;;;45.07;23.27;;;;;;;;;;4999108;28;20407;-62
2022/12/13 01:18:00;;;;;;;51.47;21.20;;;;;;;;;;5000546;28;20805;-62
2022/12/13 01:20:26;;;;;;;51.03;21.90;;;;;;;;;;5002645;28;20050;-62
2022/12/13 01:22:52;;;;;;;43.23;20.13;;;;;;;;;;4998701;28;20064;-62
2022/12/13 01:25:18;;;;;;;40.90;18.10;;;;;;;;;;4999891;28;20281;-62
2022/12/13 01:27:44;;;;;;;42.10;19.77;;;;;;;;;;5001351;28;20121;-61
2022/12/13 01:30:10;;;;;;;43.57;21.33;;;;;;;;;;5001881;28;20281;-63
2022/12/13 01:32:36;;;;;;;43.77;18.27;;;;;;;;;;4999886;28;20293;-62
2022/12/13 01:35:02;;;;;;;48.57;19.13;;;;;;;;;;4990186;28;20274;-62
2022/12/13 01:37:28;;;;;;;41.13;18.67;;;;;;;;;;4991205;28;20301;-62
2022/12/13 01:39:54;;;;;;;42.20;18.87;;;;;;;;;;4989859;28;20301;-62
2022/12/13 01:42:20;;;;;;;38.10;19.97;;;;;;;;;;4990035;28;20325;-62
2022/12/13 01:44:57;;;;;;;38.97;17.07;;;;;;;;;;4998249;28;20148;-61
2022/12/13 01:47:30;;;;;;;31.63;15.30;;;;;;;;;;5000393;28;20830;-62
2022/12/13 01:49:58;;;;;;;36.73;18.40;;;;;;;;;;4997224;28;20835;-62
2022/12/13 01:52:24;;;;;;;37.87;17.87;;;;;;;;;;5001060;28;20285;-62
2022/12/13 01:54:52;;;;;;;36.57;17.03;;;;;;;;;;5001368;28;20353;-62
2022/12/13 01:57:19;;;;;;;39.07;18.53;;;;;;;;;;5000124;28;20285;-62
2022/12/13 01:59:45;;;;;;;42.83;18.90;;;;;;;;;;4999264;28;20320;-61
2022/12/13 02:02:13;;;;;;;37.03;17.73;;;;;;;;;;4997987;28;20395;-61
2022/12/13 02:04:42;;;;;;;37.27;18.03;;;;;;;;;;5000976;28;20284;-61
2022/12/13 02:07:08;;;;;;;44.10;18.20;;;;;;;;;;5001877;28;20293;-62
2022/12/13 02:09:35;;;;;;;46.00;19.40;;;;;;;;;;5004295;28;20300;-61
2022/12/13 02:12:02;;;;;;;40.73;19.27;;;;;;;;;;5001269;28;20679;-61
2022/12/13 02:14:27;;;;;;;39.57;18.17;;;;;;;;;;4998185;28;20292;-61
2022/12/13 02:17:06;;;;;;;44.07;20.00;;;;;;;;;;4999716;28;20281;-61
2022/12/13 02:19:55;;;;;;;40.07;19.63;;;;;;;;;;4996989;28;20828;-62
2022/12/13 02:22:40;;;;;;;42.23;18.70;;;;;;;;;;4996016;28;20812;-62
2022/12/13 02:25:21;;;;;;;36.87;18.80;;;;;;;;;;4996347;28;20676;-62
2022/12/13 02:28:03;;;;;;;43.43;18.13;;;;;;;;;;4997955;28;20369;-62
2022/12/13 02:30:34;;;;;;;41.30;19.80;;;;;;;;;;4997474;28;20880;-61
2022/12/13 02:33:15;;;;;;;46.03;18.47;;;;;;;;;;4997997;28;20343;-62
2022/12/13 02:35:44;;;;;;;41.67;20.53;;;;;;;;;;4998967;28;20721;-62
2022/12/13 02:38:10;;;;;;;47.00;18.73;;;;;;;;;;4998247;28;20789;-61
2022/12/13 02:40:44;;;;;;;46.20;20.30;;;;;;;;;;4994789;28;20408;-61
2022/12/13 02:43:20;;;;;;;48.50;19.90;;;;;;;;;;4999608;28;20050;-62
2022/12/13 02:45:47;;;;;;;37.80;17.47;;;;;;;;;;4995894;28;20321;-61
2022/12/13 02:48:14;;;;;;;38.40;19.13;;;;;;;;;;5002132;28;20285;-62
2022/12/13 02:50:41;;;;;;;36.70;15.77;;;;;;;;;;4998123;28;20320;-61
2022/12/13 02:53:08;;;;;;;35.67;15.33;;;;;;;;;;4997613;28;20364;-61
2022/12/13 02:55:37;;;;;;;41.37;16.00;;;;;;;;;;4995705;28;20306;-61
2022/12/13 02:58:03;;;;;;;35.37;16.53;;;;;;;;;;4994201;28;20304;-61
2022/12/13 03:00:50;;;;;;;38.30;16.10;;;;;;;;;;4994884;28;20305;-62
2022/12/13 03:03:24;;;;;;;37.23;16.40;;;;;;;;;;5002172;28;20305;-62
2022/12/13 03:09:07;;;;;;;36.07;15.83;;;;;;;;;;4996959;28;20316;-62
2022/12/13 03:14:26;;;;;;;33.43;17.43;;;;;;;;;;5009693;28;20289;-62
2022/12/13 03:16:52;;;;;;;33.73;15.07;;;;;;;;;;5008518;28;20861;-61
2022/12/13 03:19:18;;;;;;;40.17;15.90;;;;;;;;;;5000456;28;20305;-61
2022/12/13 03:21:49;;;;;;;40.03;15.80;;;;;;;;;;4989473;28;20679;-61
2022/12/13 03:24:19;;;;;;;32.87;15.37;;;;;;;;;;4989522;28;20292;-62
2022/12/13 03:26:46;;;;;;;43.30;16.57;;;;;;;;;;4988288;28;20710;-62
2022/12/13 03:29:13;;;;;;;42.60;17.83;;;;;;;;;;4989101;28;20301;-61
2022/12/13 03:31:39;;;;;;;36.37;16.00;;;;;;;;;;4989345;28;20286;-61
2022/12/13 03:34:05;;;;;;;33.70;16.13;;;;;;;;;;4989708;28;20306;-62
2022/12/13 03:36:31;;;;;;;34.50;17.83;;;;;;;;;;4989312;28;20301;-62
2022/12/13 03:38:57;;;;;;;36.23;16.63;;;;;;;;;;4989334;28;20289;-61
2022/12/13 03:41:30;;;;;;;36.80;15.57;;;;;;;;;;4989386;28;20293;-61
2022/12/13 03:43:56;;;;;;;37.42;16.35;;;;;;;;;;5006080;28;20307;-61
2022/12/13 03:46:22;;;;;;;41.37;16.67;;;;;;;;;;5007317;28;20473;-61
2022/12/13 03:48:48;;;;;;;37.73;18.53;;;;;;;;;;5008652;28;20375;-62
2022/12/13 03:51:14;;;;;;;40.63;17.43;;;;;;;;;;4990988;28;20285;-61
2022/12/13 03:53:40;;;;;;;41.43;19.13;;;;;;;;;;5009208;28;20364;-61
2022/12/13 03:56:07;;;;;;;38.37;17.10;;;;;;;;;;5003689;28;20379;-61
2022/12/13 03:58:34;;;;;;;40.27;17.23;;;;;;;;;;4992244;28;20293;-61
2022/12/13 04:01:00;;;;;;;41.87;17.07;;;;;;;;;;4995908;28;20387;-61
2022/12/13 04:03:26;;;;;;;41.10;17.80;;;;;;;;;;5012727;28;20320;-61
2022/12/13 04:05:52;;;;;;;42.33;17.40;;;;;;;;;;5012764;28;20289;-61
2022/12/13 04:08:18;;;;;;;38.13;15.93;;;;;;;;;;5012522;28;21089;-61
2022/12/13 04:10:44;;;;;;;35.90;18.60;;;;;;;;;;5011580;28;20691;-62
2022/12/13 04:15:55;;;;;;;38.07;17.20;;;;;;;;;;5012430;28;20281;-62
2022/12/13 04:18:21;;;;;;;42.77;15.93;;;;;;;;;;5012569;28;20280;-61
2022/12/13 04:20:47;;;;;;;42.07;18.17;;;;;;;;;;5012459;28;20803;-61
2022/12/13 04:23:13;;;;;;;44.40;18.30;;;;;;;;;;5011830;28;20371;-61
2022/12/13 04:25:40;;;;;;;38.83;17.63;;;;;;;;;;5003495;28;20818;-61
2022/12/13 04:28:06;;;;;;;42.67;18.67;;;;;;;;;;4992891;28;20317;-61
2022/12/13 04:30:33;;;;;;;47.43;18.53;;;;;;;;;;4992645;28;20293;-61
2022/12/13 04:32:59;;;;;;;43.13;17.20;;;;;;;;;;4992484;28;20293;-61
2022/12/13 04:35:25;;;;;;;39.67;17.00;;;;;;;;;;4992580;28;20282;-61
2022/12/13 04:37:52;;;;;;;36.07;17.07;;;;;;;;;;4992041;28;20286;-61
2022/12/13 04:40:18;;;;;;;38.83;18.23;;;;;;;;;;4991444;28;20301;-61
2022/12/13 04:42:44;;;;;;;48.53;20.27;;;;;;;;;;4992599;28;20321;-61
2022/12/13 04:45:14;;;;;;;39.87;17.70;;;;;;;;;;4990790;28;20300;-61
2022/12/13 04:47:40;;;;;;;42.57;19.07;;;;;;;;;;4992421;28;20729;-61
2022/12/13 04:50:06;;;;;;;35.07;16.23;;;;;;;;;;4991894;28;20640;-61
2022/12/13 04:52:32;;;;;;;42.03;17.33;;;;;;;;;;4992243;28;20282;-61
2022/12/13 04:54:58;;;;;;;40.90;17.53;;;;;;;;;;4998457;28;20292;-61
2022/12/13 04:57:24;;;;;;;38.70;17.70;;;;;;;;;;5011702;28;20548;-61
2022/12/13 04:59:50;;;;;;;41.30;18.67;;;;;;;;;;5010578;28;20370;-62
2022/12/13 05:02:16;;;;;;;40.70;18.30;;;;;;;;;;5011205;28;20085;-62
2022/12/13 05:04:44;;;;;;;41.00;19.77;;;;;;;;;;5011699;28;20401;-61
2022/12/13 05:07:10;;;;;;;35.03;14.60;;;;;;;;;;5010726;28;20050;-61
2022/12/13 05:09:36;;;;;;;39.97;18.17;;;;;;;;;;5009934;28;20351;-61
2022/12/13 05:12:02;;;;;;;38.60;19.27;;;;;;;;;;5001465;28;20364;-61
2022/12/13 05:14:31;;;;;;;45.83;20.93;;;;;;;;;;4991910;28;20288;-61
2022/12/13 05:16:58;;;;;;;41.10;19.67;;;;;;;;;;4991696;28;20393;-62
2022/12/13 05:19:24;;;;;;;47.77;19.77;;;;;;;;;;4991950;28;20293;-61
2022/12/13 05:21:50;;;;;;;39.90;18.73;;;;;;;;;;4991641;28;20305;-61
2022/12/13 05:24:16;;;;;;;39.27;18.50;;;;;;;;;;4992364;28;20282;-62
2022/12/13 05:26:42;;;;;;;43.77;18.30;;;;;;;;;;4990660;28;20297;-61
2022/12/13 05:29:08;;;;;;;39.43;18.90;;;;;;;;;;5003972;28;20810;-61
2022/12/13 05:31:34;;;;;;;34.17;17.87;;;;;;;;;;4999553;28;20333;-62
2022/12/13 05:34:00;;;;;;;53.83;22.47;;;;;;;;;;4991337;28;20380;-61
2022/12/13 05:36:27;;;;;;;50.63;21.60;;;;;;;;;;4991424;28;20297;-62
2022/12/13 05:38:52;;;;;;;48.27;20.63;;;;;;;;;;4991667;28;20292;-62
2022/12/13 05:41:20;;;;;;;51.00;21.07;;;;;;;;;;4991387;28;20282;-61
2022/12/13 05:43:46;;;;;;;48.27;23.97;;;;;;;;;;4991003;28;20306;-61
2022/12/13 05:46:12;;;;;;;51.17;22.80;;;;;;;;;;4990813;28;20363;-61
2022/12/13 05:48:39;;;;;;;56.57;22.97;;;;;;;;;;4991242;28;20380;-61
2022/12/13 05:51:05;;;;;;;52.47;23.07;;;;;;;;;;4990778;28;20368;-61
2022/12/13 05:53:31;;;;;;;55.73;22.00;;;;;;;;;;4988468;28;20310;-61
2022/12/13 05:56:00;;;;;;;54.83;25.20;;;;;;;;;;4989304;28;20429;-62
2022/12/13 05:58:26;;;;;;;52.83;21.17;;;;;;;;;;4988982;28;20042;-61
2022/12/13 06:00:52;;;;;;;52.73;21.10;;;;;;;;;;4988638;28;20289;-61
2022/12/13 06:03:19;;;;;;;52.40;22.30;;;;;;;;;;4988527;28;20313;-61
2022/12/13 06:05:45;;;;;;;60.37;24.73;;;;;;;;;;5005477;28;20323;-61
2022/12/13 06:08:11;;;;;;;56.77;24.13;;;;;;;;;;5010001;28;20648;-61
2022/12/13 06:10:37;;;;;;;52.07;23.10;;;;;;;;;;5010381;28;20289;-61
2022/12/13 06:13:04;;;;;;;49.67;23.87;;;;;;;;;;5006943;28;20312;-61
2022/12/13 06:15:30;;;;;;;63.23;22.93;;;;;;;;;;4990413;28;20293;-61
2022/12/13 06:17:58;;;;;;;57.23;23.57;;;;;;;;;;4994955;28;20305;-61
2022/12/13 06:20:24;;;;;;;53.83;24.70;;;;;;;;;;5010160;28;20656;-62
2022/12/13 06:22:53;;;;;;;54.93;22.63;;;;;;;;;;5009768;28;20725;-62
2022/12/13 06:25:19;;;;;;;60.10;24.97;;;;;;;;;;5009335;28;20362;-61
2022/12/13 06:27:45;;;;;;;58.50;23.10;;;;;;;;;;5004057;28;20309;-61
2022/12/13 06:30:12;;;;;;;56.93;23.10;;;;;;;;;;5001897;28;20300;-62
2022/12/13 06:32:38;;;;;;;66.20;27.30;;;;;;;;;;5009619;28;20682;-62
2022/12/13 06:35:04;;;;;;;60.90;27.03;;;;;;;;;;5009472;28;20292;-61
2022/12/13 06:37:30;;;;;;;56.57;24.73;;;;;;;;;;5009360;28;20728;-61
2022/12/13 06:39:56;;;;;;;56.23;27.43;;;;;;;;;;5009735;28;20375;-62
2022/12/13 06:42:22;;;;;;;48.80;22.37;;;;;;;;;;5006865;28;20309;-61
2022/12/13 06:44:50;;;;;;;54.00;22.90;;;;;;;;;;4989092;28;20293;-62
2022/12/13 06:47:16;;;;;;;45.07;21.67;;;;;;;;;;4988695;28;20054;-61
2022/12/13 06:49:42;;;;;;;46.80;21.77;;;;;;;;;;4988419;28;20355;-61
2022/12/13 06:52:11;;;;;;;52.00;23.20;;;;;;;;;;5005887;28;20293;-62
2022/12/13 06:54:37;;;;;;;54.27;22.53;;;;;;;;;;5004109;28;20319;-61
2022/12/13 06:57:03;;;;;;;49.00;22.47;;;;;;;;;;5009013;28;20277;-61
2022/12/13 06:59:29;;;;;;;56.00;25.27;;;;;;;;;;5009556;28;20810;-61
2022/12/13 07:01:55;;;;;;;58.83;23.03;;;;;;;;;;5009018;28;20296;-61
2022/12/13 07:04:21;;;;;;;52.00;20.90;;;;;;;;;;5008277;28;20281;-61
2022/12/13 07:06:47;;;;;;;48.17;20.73;;;;;;;;;;5009338;28;20280;-61
2022/12/13 07:09:13;;;;;;;51.07;19.83;;;;;;;;;;5009120;28;20288;-61
2022/12/13 07:11:39;;;;;;;58.07;21.33;;;;;;;;;;5009164;28;20363;-62
2022/12/13 07:14:05;;;;;;;49.10;20.97;;;;;;;;;;5009006;28;20805;-61
2022/12/13 07:16:31;;;;;;;55.93;23.30;;;;;;;;;;5009092;28;20289;-61
2022/12/13 07:18:58;;;;;;;52.17;21.57;;;;;;;;;;5008161;28;20289;-61
2022/12/13 07:21:25;;;;;;;49.20;21.63;;;;;;;;;;4988966;28;20360;-61
2022/12/13 07:23:51;;;;;;;63.47;25.13;;;;;;;;;;4989029;28;20819;-61
2022/12/13 07:26:17;;;;;;;64.30;26.93;;;;;;;;;;4989276;28;20293;-61
2022/12/13 07:28:43;;;;;;;57.00;24.47;;;;;;;;;;4987192;28;20313;-61
2022/12/13 07:31:10;;;;;;;61.67;26.50;;;;;;;;;;4987840;28;20356;-62
2022/12/13 07:33:36;;;;;;;61.57;28.70;;;;;;;;;;4988792;28;20290;-62
2022/12/13 07:36:08;;;;;;;63.33;28.83;;;;;;;;;;4989102;28;20316;-61
2022/12/13 07:38:34;;;;;;;70.90;28.50;;;;;;;;;;4989277;28;20384;-61
2022/12/13 07:41:00;;;;;;;72.40;30.00;;;;;;;;;;4988029;28;20291;-61
2022/12/13 07:43:28;;;;;;;73.33;32.17;;;;;;;;;;4996227;28;20317;-61
2022/12/13 07:45:54;;;;;;;76.10;28.37;;;;;;;;;;5008000;28;20372;-62
2022/12/13 07:48:20;;;;;;;75.80;30.63;;;;;;;;;;5008307;28;20292;-61
2022/12/13 07:50:46;;;;;;;78.40;32.50;;;;;;;;;;5008375;28;20651;-61
2022/12/13 07:53:13;;;;;;;74.10;30.53;;;;;;;;;;5005927;28;20285;-61
2022/12/13 07:55:39;;;;;;;64.03;28.43;;;;;;;;;;4994240;28;20157;-62
2022/12/13 07:58:12;;;;;;;70.87;32.97;;;;;;;;;;5006225;28;20285;-61
2022/12/13 08:00:39;;;;;;;76.10;29.27;;;;;;;;;;5009609;28;20335;-61
2022/12/13 08:03:05;;;;;;;85.43;32.03;;;;;;;;;;5008289;28;20061;-61
2022/12/13 08:05:32;;;;;;;73.57;32.23;;;;;;;;;;5002401;28;20289;-61
2022/12/13 08:07:59;;;;;;;59.23;27.13;;;;;;;;;;4988180;28;20296;-61
2022/12/13 08:10:25;;;;;;;77.03;32.47;;;;;;;;;;4988554;28;20364;-62
2022/12/13 08:12:51;;;;;;;73.13;32.07;;;;;;;;;;4988327;28;20324;-62
2022/12/13 08:15:18;;;;;;;83.83;32.40;;;;;;;;;;4991986;28;20652;-61
2022/12/13 08:17:44;;;;;;;74.63;29.57;;;;;;;;;;5001805;28;20042;-62
2022/12/13 08:20:10;;;;;;;73.50;29.63;;;;;;;;;;5006023;28;20277;-62
2022/12/13 08:22:36;;;;;;;74.47;30.07;;;;;;;;;;4988493;28;20348;-62
2022/12/13 08:25:02;;;;;;;76.50;29.93;;;;;;;;;;5006339;28;20671;-62
2022/12/13 08:27:28;;;;;;;77.53;31.40;;;;;;;;;;5001179;28;20289;-62
2022/12/13 08:29:55;;;;;;;81.30;33.53;;;;;;;;;;4984469;28;20285;-62
2022/12/13 08:32:21;;;;;;;83.77;31.23;;;;;;;;;;5006829;28;20285;-64
2022/12/13 08:34:47;;;;;;;82.27;33.10;;;;;;;;;;5004393;28;20380;-63
2022/12/13 08:37:13;;;;;;;80.63;32.20;;;;;;;;;;4996200;28;20289;-62
2022/12/13 08:39:43;;;;;;;79.73;32.40;;;;;;;;;;5009924;28;20277;-62
2022/12/13 08:42:16;;;;;;;86.17;32.73;;;;;;;;;;5007897;28;20300;-62
2022/12/13 08:44:43;;;;;;;79.18;32.20;;;;;;;;;;5010597;28;20293;-62
2022/12/13 08:47:09;;;;;;;75.63;33.43;;;;;;;;;;5005882;28;20105;-62
2022/12/13 08:49:35;;;;;;;77.10;32.93;;;;;;;;;;5010790;28;20316;-62
2022/12/13 08:52:01;;;;;;;74.97;31.73;;;;;;;;;;5011722;28;20639;-62
2022/12/13 08:54:27;;;;;;;74.57;30.00;;;;;;;;;;5009684;28;20288;-62
2022/12/13 08:56:53;;;;;;;75.70;33.43;;;;;;;;;;4993243;28;20046;-62
2022/12/13 08:59:19;;;;;;;83.47;33.57;;;;;;;;;;4998835;28;20307;-63
2022/12/13 09:01:45;;;;;;;70.13;29.80;;;;;;;;;;5010288;28;20779;-62
2022/12/13 09:04:11;;;;;;;73.53;33.47;;;;;;;;;;4994041;28;20352;-62
2022/12/13 09:06:37;;;;;;;83.17;34.53;;;;;;;;;;5007126;28;20292;-61
2022/12/13 09:09:03;;;;;;;85.93;33.03;;;;;;;;;;5009506;28;20281;-61
2022/12/13 09:11:29;;;;;;;82.20;34.00;;;;;;;;;;5007966;28;20312;-61
2022/12/13 09:13:55;;;;;;;74.97;33.50;;;;;;;;;;5009902;28;20817;-61
2022/12/13 09:16:22;;;;;;;76.57;32.20;;;;;;;;;;5010516;28;20049;-61
2022/12/13 09:18:48;;;;;;;81.37;33.53;;;;;;;;;;5010216;28;20368;-61
2022/12/13 09:21:15;;;;;;;88.43;32.67;;;;;;;;;;5000419;28;20351;-61
2022/12/13 09:23:41;;;;;;;82.40;37.30;;;;;;;;;;5010244;28;20358;-61
2022/12/13 09:26:08;;;;;;;86.00;35.77;;;;;;;;;;4993305;28;20292;-61
2022/12/13 09:28:35;;;;;;;82.30;33.87;;;;;;;;;;5004521;28;20304;-61
2022/12/13 09:31:05;;;;;;;87.97;35.63;;;;;;;;;;5009207;28;20311;-61
2022/12/13 09:33:31;;;;;;;76.27;36.07;;;;;;;;;;5010029;28;20281;-61
2022/12/13 09:35:58;;;;;;;84.17;36.23;;;;;;;;;;5010803;28;20284;-61
2022/12/13 09:38:24;;;;;;;78.37;35.50;;;;;;;;;;5008418;28;20797;-61
2022/12/13 09:40:52;;;;;;;71.07;33.47;;;;;;;;;;5006514;28;20303;-61
2022/12/13 09:43:22;;;;;;;80.07;35.30;;;;;;;;;;5009328;28;20313;-61
2022/12/13 09:45:49;;;;;;;87.57;37.73;;;;;;;;;;5007293;28;20290;-61
2022/12/13 09:48:19;;;;;;;84.83;37.27;;;;;;;;;;5006825;28;20723;-61
2022/12/13 09:50:46;;;;;;;96.67;38.43;;;;;;;;;;5009656;28;20284;-61
2022/12/13 09:53:14;;;;;;;104.37;43.90;;;;;;;;;;4992887;28;20384;-61
2022/12/13 09:55:44;;;;;;;166.53;58.50;;;;;;;;;;5004058;28;20303;-61
2022/12/13 09:58:17;;;;;;;158.30;57.13;;;;;;;;;;5005618;28;20308;-61
2022/12/13 10:00:45;;;;;;;240.37;82.57;;;;;;;;;;4993500;28;20339;-61
2022/12/13 10:03:15;;;;;;;208.37;79.37;;;;;;;;;;5009279;28;20308;-61
2022/12/13 10:05:44;;;;;;;239.17;80.10;;;;;;;;;;5005515;28;20388;-61
2022/12/13 10:08:15;;;;;;;184.83;70.03;;;;;;;;;;4995802;28;20305;-61
2022/12/13 10:10:42;;;;;;;204.47;75.00;;;;;;;;;;4993218;28;20290;-61
2022/12/13 10:13:23;;;;;;;265.00;88.37;;;;;;;;;;4992663;28;20289;-61
2022/12/13 10:15:58;;;;;;;178.53;70.23;;;;;;;;;;5010317;28;20292;-61
2022/12/13 10:18:32;;;;;;;146.33;61.53;;;;;;;;;;5009390;28;20388;-61
2022/12/13 10:20:59;;;;;;;127.70;58.60;;;;;;;;;;5009581;28;20289;-61
2022/12/13 10:23:25;;;;;;;108.13;56.60;;;;;;;;;;4999897;28;20312;-61
2022/12/13 10:25:56;;;;;;;96.37;47.77;;;;;;;;;;5007575;28;20348;-61
2022/12/13 10:28:40;;;;;;;87.37;43.47;;;;;;;;;;4998376;28;20796;-61
2022/12/13 10:31:06;;;;;;;79.57;39.63;;;;;;;;;;4996159;28;20667;-61
2022/12/13 10:33:32;;;;;;;76.30;40.83;;;;;;;;;;5006461;28;20296;-61
2022/12/13 10:36:06;;;;;;;67.60;33.97;;;;;;;;;;5008699;28;20651;-61
2022/12/13 10:38:37;;;;;;;64.90;32.93;;;;;;;;;;5009018;28;20285;-61
2022/12/13 10:41:24;;;;;;;60.80;30.90;;;;;;;;;;5007968;28;20289;-61
2022/12/13 10:44:06;;;;;;;57.03;29.77;;;;;;;;;;5009299;28;20502;-61
2022/12/13 10:46:32;;;;;;;53.30;28.17;;;;;;;;;;5008137;28;20333;-61
2022/12/13 10:48:59;;;;;;;48.80;27.43;;;;;;;;;;5001155;28;20660;-61
2022/12/13 10:51:25;;;;;;;54.00;27.20;;;;;;;;;;4989386;28;20046;-61
2022/12/13 10:54:00;;;;;;;50.97;27.10;;;;;;;;;;4989734;28;20054;-61
2022/12/13 10:56:35;;;;;;;49.23;26.90;;;;;;;;;;4989559;28;20375;-62
2022/12/13 10:59:11;;;;;;;40.03;23.43;;;;;;;;;;4989666;28;20047;-62
2022/12/13 11:01:38;;;;;;;43.63;24.63;;;;;;;;;;4992438;28;20130;-62
2022/12/13 11:04:05;;;;;;;41.83;25.90;;;;;;;;;;4997349;28;20054;-62
2022/12/13 11:06:42;;;;;;;38.37;21.30;;;;;;;;;;4988020;28;20081;-62
2022/12/13 11:09:15;;;;;;;40.10;22.23;;;;;;;;;;4988738;28;20054;-61
2022/12/13 11:11:44;;;;;;;37.67;23.88;;;;;;;;;;4989310;28;20054;-62
2022/12/13 11:14:17;;;;;;;46.33;23.77;;;;;;;;;;4992414;28;20082;-61
2022/12/13 11:16:45;;;;;;;33.37;20.80;;;;;;;;;;4992438;28;20059;-61
2022/12/13 11:19:17;;;;;;;37.10;22.03;;;;;;;;;;4994537;28;20038;-61
2022/12/13 11:21:47;;;;;;;33.07;20.87;;;;;;;;;;5007032;28;20053;-62
2022/12/13 11:24:18;;;;;;;40.20;21.70;;;;;;;;;;5009001;28;20053;-61
2022/12/13 11:26:45;;;;;;;38.33;21.53;;;;;;;;;;5008984;28;20088;-62
2022/12/13 11:29:20;;;;;;;36.63;22.93;;;;;;;;;;4996207;28;20046;-61
2022/12/13 11:31:49;;;;;;;37.13;21.70;;;;;;;;;;4988780;28;20062;-61
2022/12/13 11:34:25;;;;;;;35.60;20.80;;;;;;;;;;4988244;28;20365;-62
2022/12/13 11:37:16;;;;;;;36.33;21.77;;;;;;;;;;5008577;28;20050;-61
2022/12/13 11:39:54;;;;;;;35.10;21.53;;;;;;;;;;5006496;28;20053;-62
2022/12/13 11:42:26;;;;;;;35.47;20.30;;;;;;;;;;5007320;28;20181;-61
2022/12/13 11:44:58;;;;;;;35.43;22.90;;;;;;;;;;5007904;28;20467;-62
2022/12/13 11:47:27;;;;;;;38.15;21.95;;;;;;;;;;5007064;28;20060;-62
2022/12/13 11:49:53;;;;;;;38.27;22.87;;;;;;;;;;5007652;28;20058;-62
2022/12/13 11:52:19;;;;;;;40.60;22.13;;;;;;;;;;5007655;28;20438;-62
2022/12/13 11:54:57;;;;;;;40.40;23.17;;;;;;;;;;4991574;28;20045;-62
2022/12/13 11:57:38;;;;;;;33.60;21.47;;;;;;;;;;5008111;28;20046;-62
2022/12/13 12:00:20;;;;;;;36.30;22.07;;;;;;;;;;5007412;28;20054;-62
2022/12/13 12:02:49;;;;;;;38.07;22.37;;;;;;;;;;5008467;28;20471;-63
2022/12/13 12:05:27;;;;;;;35.17;20.50;;;;;;;;;;5008359;28;20099;-63
2022/12/13 12:08:13;;;;;;;37.50;21.93;;;;;;;;;;5001122;28;20063;-63
2022/12/13 12:10:45;;;;;;;35.93;20.43;;;;;;;;;;4986774;28;20109;-63
2022/12/13 12:13:25;;;;;;;36.50;21.43;;;;;;;;;;4988317;28;20050;-63
2022/12/13 12:16:10;;;;;;;40.07;22.37;;;;;;;;;;4990928;28;20049;-63
2022/12/13 12:18:36;;;;;;;38.17;22.07;;;;;;;;;;4992869;28;20046;-63
2022/12/13 12:21:17;;;;;;;35.03;20.97;;;;;;;;;;4992215;28;20563;-62
2022/12/13 12:23:46;;;;;;;36.10;21.77;;;;;;;;;;4992588;28;20082;-63
2022/12/13 12:26:16;;;;;;;34.57;22.70;;;;;;;;;;4991623;28;20050;-63
2022/12/13 12:28:49;;;;;;;31.13;19.70;;;;;;;;;;4992209;28;20069;-63
2022/12/13 12:31:31;;;;;;;36.50;21.70;;;;;;;;;;4991848;28;20489;-63
2022/12/13 12:34:14;;;;;;;32.00;18.47;;;;;;;;;;4992116;28;20436;-63
2022/12/13 12:36:52;;;;;;;35.92;22.23;;;;;;;;;;4992424;28;20129;-63
2022/12/13 12:39:38;;;;;;;33.77;19.70;;;;;;;;;;4991642;28;20054;-63
2022/12/13 12:42:04;;;;;;;30.43;19.50;;;;;;;;;;4991730;28;20061;-63
2022/12/13 12:44:55;;;;;;;35.37;20.53;;;;;;;;;;4991794;28;20429;-63
2022/12/13 12:47:30;;;;;;;35.87;20.23;;;;;;;;;;4991863;28;20077;-63
2022/12/13 12:50:02;;;;;;;35.97;19.57;;;;;;;;;;4991186;28;20057;-63
2022/12/13 12:52:39;;;;;;;34.37;19.77;;;;;;;;;;4992033;28;20140;-63
2022/12/13 12:55:10;;;;;;;35.40;19.97;;;;;;;;;;4990403;28;20074;-63
2022/12/13 12:57:39;;;;;;;32.77;20.83;;;;;;;;;;4991301;28;20576;-63
2022/12/13 13:00:08;;;;;;;37.30;21.63;;;;;;;;;;4997868;28;20038;-63
2022/12/13 13:02:53;;;;;;;35.03;20.63;;;;;;;;;;5010521;28;20132;-63
2022/12/13 13:05:22;;;;;;;39.63;22.90;;;;;;;;;;5011204;28;20054;-63
2022/12/13 13:07:56;;;;;;;35.43;21.50;;;;;;;;;;4995816;28;20061;-63
2022/12/13 13:10:23;;;;;;;37.33;22.97;;;;;;;;;;4990817;28;20473;-63
2022/12/13 13:12:49;;;;;;;36.63;21.90;;;;;;;;;;4991858;28;20567;-63
2022/12/13 13:15:30;;;;;;;36.53;21.50;;;;;;;;;;4998464;28;20042;-62
2022/12/13 13:17:57;;;;;;;34.40;21.60;;;;;;;;;;5010773;28;20042;-63
2022/12/13 13:20:24;;;;;;;34.60;21.97;;;;;;;;;;5011379;28;20045;-63
2022/12/13 13:22:51;;;;;;;35.47;22.57;;;;;;;;;;5010979;28;20120;-63
2022/12/13 13:25:21;;;;;;;34.53;19.73;;;;;;;;;;5009367;28;20049;-63
2022/12/13 13:27:47;;;;;;;32.97;21.07;;;;;;;;;;4996509;28;20146;-63
2022/12/13 13:30:16;;;;;;;32.53;19.83;;;;;;;;;;5004628;28;20528;-63
2022/12/13 13:32:42;;;;;;;31.87;19.27;;;;;;;;;;5011224;28;20046;-63
2022/12/13 13:35:27;;;;;;;36.63;20.33;;;;;;;;;;5007239;28;20047;-63
2022/12/13 13:37:54;;;;;;;31.23;20.27;;;;;;;;;;4989450;28;20117;-63
2022/12/13 13:40:35;;;;;;;32.67;19.27;;;;;;;;;;4990352;28;20046;-63
2022/12/13 13:43:10;;;;;;;32.23;20.23;;;;;;;;;;4991021;28;20046;-63
2022/12/13 13:45:52;;;;;;;32.60;19.57;;;;;;;;;;5010010;28;20060;-63
2022/12/13 13:48:37;;;;;;;32.70;18.90;;;;;;;;;;5010390;28;20042;-63
2022/12/13 13:51:03;;;;;;;32.73;19.60;;;;;;;;;;4991010;28;20234;-63
2022/12/13 13:54:07;;;;;;;33.73;21.27;;;;;;;;;;4989907;28;20051;-63
2022/12/13 13:56:40;;;;;;;31.77;20.70;;;;;;;;;;4949993;28;20051;-63
2022/12/13 13:59:24;;;;;;;37.73;21.00;;;;;;;;;;4949026;28;20121;-63
2022/12/13 14:02:09;;;;;;;32.90;21.13;;;;;;;;;;4976276;28;20132;-63
2022/12/13 14:04:53;;;;;;;33.43;20.03;;;;;;;;;;5001564;28;20084;-63
2022/12/13 14:07:19;;;;;;;35.47;21.57;;;;;;;;;;5010644;28;20120;-63
2022/12/13 14:09:49;;;;;;;35.20;20.87;;;;;;;;;;5010742;28;20050;-62
2022/12/13 14:12:28;;;;;;;37.07;22.37;;;;;;;;;;5010030;28;20052;-62
2022/12/13 14:15:12;;;;;;;35.87;22.43;;;;;;;;;;5009098;28;20056;-63
2022/12/13 14:17:57;;;;;;;39.83;23.07;;;;;;;;;;5010344;28;20045;-63
2022/12/13 14:20:42;;;;;;;36.90;20.87;;;;;;;;;;4989422;28;20054;-62
2022/12/13 14:23:14;;;;;;;37.43;21.13;;;;;;;;;;4990481;28;20153;-62
2022/12/13 14:25:47;;;;;;;40.07;21.90;;;;;;;;;;4989142;28;20053;-62
2022/12/13 14:28:19;;;;;;;39.77;23.70;;;;;;;;;;4990669;28;20133;-62
2022/12/13 14:30:45;;;;;;;39.13;23.03;;;;;;;;;;4989157;28;20054;-63
2022/12/13 14:33:19;;;;;;;40.67;23.40;;;;;;;;;;4994377;28;20459;-62
2022/12/13 14:35:53;;;;;;;39.83;22.23;;;;;;;;;;5008727;28;20299;-62
2022/12/13 14:38:19;;;;;;;;;;;;;;;;;;5009238;28;20061;-62